Time;durP1;ratioP1;P1;durP2;ratioP2;P2;SDS_P1;SDS_P2;PMS_P1;PMS_P2;Temp;Humidity;BMP_temperature;BMP_pressure;BME280_temperature;BME280_humidity;BME280_pressure;Samples;Min_cycle;Max_cycle;Signal;HPM_P1;HPM_P2
2023/06/20 00:02:10;;;;;;;6.00;5.30;;;20.60;96.80;;;;;;4998009;28;20508;-81
2023/06/20 00:05:14;;;;;;;7.75;5.72;;;20.60;97.00;;;;;;5010703;28;20049;-81
2023/06/20 00:08:18;;;;;;;8.18;5.40;;;20.60;97.30;;;;;;5010493;28;20037;-81
2023/06/20 00:11:22;;;;;;;9.57;5.68;;;20.70;97.50;;;;;;5010180;28;20053;-81
2023/06/20 00:14:29;;;;;;;10.98;6.30;;;20.60;97.70;;;;;;5009592;28;20045;-81
2023/06/20 00:17:34;;;;;;;7.53;5.63;;;20.60;98.10;;;;;;5010251;28;20053;-80
2023/06/20 00:20:38;;;;;;;10.30;6.97;;;20.60;98.90;;;;;;5010553;28;20049;-82
2023/06/20 00:23:42;;;;;;;7.88;6.10;;;20.40;99.10;;;;;;5009436;28;20049;-81
2023/06/20 00:26:46;;;;;;;8.35;6.10;;;20.30;99.10;;;;;;5010136;28;20424;-81
2023/06/20 00:29:50;;;;;;;10.27;6.45;;;20.10;99.10;;;;;;4998417;28;20069;-82
2023/06/20 00:32:54;;;;;;;9.98;6.43;;;20.00;99.50;;;;;;5012776;28;20049;-81
2023/06/20 00:35:58;;;;;;;10.05;6.57;;;19.90;99.90;;;;;;5013627;28;20049;-81
2023/06/20 00:39:03;;;;;;;14.65;7.68;;;19.80;99.90;;;;;;5013680;28;20041;-81
2023/06/20 00:42:19;;;;;;;11.27;7.55;;;19.80;99.90;;;;;;5012517;28;20053;-81
2023/06/20 00:45:32;;;;;;;12.55;5.85;;;19.80;99.90;;;;;;5013712;28;20503;-82
2023/06/20 00:48:36;;;;;;;7.43;5.95;;;19.70;99.90;;;;;;5001163;28;20037;-81
2023/06/20 00:51:40;;;;;;;9.45;6.13;;;19.70;99.90;;;;;;5001070;28;20235;-81
2023/06/20 00:54:48;;;;;;;9.25;6.45;;;19.70;99.90;;;;;;5001606;28;20243;-81
2023/06/20 00:57:55;;;;;;;8.95;6.13;;;19.70;99.90;;;;;;5012294;28;20535;-81
2023/06/20 01:00:59;;;;;;;11.68;6.65;;;19.70;99.90;;;;;;5013540;28;20522;-81
2023/06/20 01:04:04;;;;;;;9.73;6.18;;;19.70;99.90;;;;;;5012531;28;20049;-81
2023/06/20 01:07:33;;;;;;;13.32;6.85;;;19.60;99.90;;;;;;5012632;28;20029;-82
2023/06/20 01:10:46;;;;;;;8.38;6.25;;;19.60;99.90;;;;;;5013128;28;20049;-82
2023/06/20 01:14:16;;;;;;;13.05;7.30;;;19.60;99.90;;;;;;5013403;28;20045;-81
2023/06/20 01:17:27;;;;;;;10.05;6.80;;;19.60;99.90;;;;;;5001102;28;20503;-81
2023/06/20 01:20:46;;;;;;;10.73;6.50;;;19.50;99.90;;;;;;5024340;28;20049;-82
2023/06/20 01:24:25;;;;;;;9.18;6.75;;;19.40;99.90;;;;;;5012463;28;20076;-81
2023/06/20 01:27:35;;;;;;;9.25;6.60;;;19.30;99.90;;;;;;5023416;28;20053;-81
2023/06/20 01:30:42;;;;;;;9.63;6.82;;;19.10;99.90;;;;;;5023425;28;20072;-81
2023/06/20 01:33:58;;;;;;;10.82;7.35;;;19.00;99.90;;;;;;5023555;28;20068;-81
2023/06/20 01:37:06;;;;;;;11.43;6.65;;;18.90;99.90;;;;;;5023429;28;20068;-81
2023/06/20 01:40:17;;;;;;;9.80;6.55;;;18.80;99.90;;;;;;5012672;28;20052;-81
2023/06/20 01:43:22;;;;;;;9.35;6.68;;;18.70;99.90;;;;;;5022574;28;20045;-82
2023/06/20 01:46:26;;;;;;;9.30;6.72;;;18.70;99.90;;;;;;5011957;28;20061;-82
2023/06/20 01:49:32;;;;;;;11.05;6.70;;;18.60;99.90;;;;;;5022703;28;20503;-82
2023/06/20 01:52:37;;;;;;;13.80;6.45;;;18.60;99.90;;;;;;5022682;28;20061;-82
2023/06/20 01:55:47;;;;;;;11.48;7.20;;;18.60;99.90;;;;;;5011530;28;20041;-82
2023/06/20 01:58:54;;;;;;;11.20;7.20;;;18.60;99.90;;;;;;5011603;28;20037;-82
2023/06/20 02:01:59;;;;;;;10.68;7.18;;;18.50;99.90;;;;;;5011127;28;20396;-81
2023/06/20 02:05:07;;;;;;;8.82;7.15;;;18.50;99.90;;;;;;5011317;28;20508;-82
2023/06/20 02:08:13;;;;;;;13.00;7.53;;;18.40;99.90;;;;;;5011455;28;20037;-82
2023/06/20 02:11:18;;;;;;;11.60;7.78;;;18.40;99.90;;;;;;5011955;28;20061;-80
2023/06/20 02:14:27;;;;;;;9.70;7.63;;;18.30;99.90;;;;;;5000129;28;20389;-82
2023/06/20 02:17:32;;;;;;;11.88;7.18;;;18.30;99.90;;;;;;5022703;28;20045;-81
2023/06/20 02:20:35;;;;;;;12.73;8.45;;;18.30;99.90;;;;;;4999409;28;20048;-82
2023/06/20 02:23:40;;;;;;;13.00;7.50;;;18.20;99.90;;;;;;5010863;28;20052;-82
2023/06/20 02:26:46;;;;;;;11.93;7.72;;;18.20;99.90;;;;;;5011101;28;20048;-81
2023/06/20 02:29:51;;;;;;;11.10;7.47;;;18.20;99.90;;;;;;5011545;28;20046;-82
2023/06/20 02:32:57;;;;;;;12.65;8.07;;;18.20;99.90;;;;;;5021773;28;20049;-82
2023/06/20 02:36:03;;;;;;;11.48;7.35;;;18.20;99.90;;;;;;5011728;28;20065;-82
2023/06/20 02:39:07;;;;;;;11.77;7.72;;;18.20;99.90;;;;;;5010715;28;20049;-82
2023/06/20 02:42:13;;;;;;;10.63;7.13;;;18.10;99.90;;;;;;5011416;28;20408;-82
2023/06/20 02:45:18;;;;;;;10.70;6.82;;;18.10;99.90;;;;;;5011668;28;20499;-80
2023/06/20 02:48:29;;;;;;;9.10;7.25;;;18.00;99.90;;;;;;4999720;28;20053;-82
2023/06/20 02:52:03;;;;;;;12.73;7.63;;;18.00;99.90;;;;;;5010113;28;20404;-82
2023/06/20 02:55:17;;;;;;;10.50;7.65;;;17.90;99.90;;;;;;5011449;28;20072;-81
2023/06/20 02:58:24;;;;;;;11.73;7.43;;;17.90;99.90;;;;;;4999008;28;20037;-82
2023/06/20 03:01:32;;;;;;;13.32;8.65;;;17.90;99.90;;;;;;4998988;28;20056;-81
2023/06/20 03:04:36;;;;;;;11.95;7.60;;;17.90;99.90;;;;;;5010666;28;20044;-82
2023/06/20 03:07:42;;;;;;;10.93;7.28;;;17.90;99.90;;;;;;5010345;28;20511;-82
2023/06/20 03:10:47;;;;;;;9.52;7.25;;;17.90;99.90;;;;;;5009861;28;20044;-81
2023/06/20 03:13:51;;;;;;;11.35;7.20;;;17.90;99.90;;;;;;5021212;28;20499;-82
2023/06/20 03:16:56;;;;;;;10.18;7.50;;;17.90;99.90;;;;;;4998830;28;20041;-82
2023/06/20 03:20:05;;;;;;;10.35;6.70;;;17.90;99.90;;;;;;4998970;28;20073;-82
2023/06/20 03:23:10;;;;;;;8.40;6.60;;;17.90;99.90;;;;;;5021242;28;20061;-82
2023/06/20 03:26:14;;;;;;;9.10;6.93;;;17.90;99.90;;;;;;5021663;28;20052;-82
2023/06/20 03:29:17;;;;;;;9.38;6.10;;;18.40;99.90;;;;;;5009740;28;20404;-81
2023/06/20 03:32:21;;;;;;;8.93;6.32;;;18.10;99.90;;;;;;5009516;28;20503;-82
2023/06/20 03:35:25;;;;;;;10.68;6.57;;;18.00;99.90;;;;;;5009695;28;20048;-82
2023/06/20 03:38:29;;;;;;;11.85;7.40;;;17.70;99.90;;;;;;5020933;28;20572;-82
2023/06/20 03:41:33;;;;;;;13.23;7.65;;;17.60;99.90;;;;;;5009012;28;20469;-81
2023/06/20 03:44:39;;;;;;;11.82;7.63;;;17.50;99.90;;;;;;5009636;28;20053;-82
2023/06/20 03:47:43;;;;;;;13.90;7.38;;;17.40;99.90;;;;;;4998185;28;20064;-81
2023/06/20 03:50:47;;;;;;;14.35;7.60;;;17.50;99.90;;;;;;5009900;28;20500;-82
2023/06/20 03:53:52;;;;;;;13.48;7.68;;;17.50;99.90;;;;;;5009909;28;20670;-82
2023/06/20 03:56:56;;;;;;;9.68;5.90;;;17.60;99.90;;;;;;5009788;28;20053;-82
2023/06/20 04:00:01;;;;;;;7.93;6.18;;;17.80;99.90;;;;;;4998260;28;20053;-81
2023/06/20 04:03:09;;;;;;;11.25;6.43;;;17.90;99.90;;;;;;5009274;28;20100;-81
2023/06/20 04:06:13;;;;;;;8.60;6.32;;;18.10;99.90;;;;;;5012280;28;20061;-82
2023/06/20 04:09:17;;;;;;;9.45;6.50;;;18.20;99.90;;;;;;5014484;28;20503;-82
2023/06/20 04:12:22;;;;;;;13.57;8.02;;;18.30;99.90;;;;;;5014108;28;20041;-82
2023/06/20 04:15:27;;;;;;;11.60;7.43;;;18.40;99.90;;;;;;5014939;28;20037;-82
2023/06/20 04:18:31;;;;;;;13.13;7.32;;;18.40;99.90;;;;;;5013784;28;20056;-82
2023/06/20 04:21:35;;;;;;;29.60;10.65;;;18.40;99.90;;;;;;5013987;28;20052;-82
2023/06/20 04:24:40;;;;;;;10.07;6.97;;;18.60;99.90;;;;;;5013555;28;20048;-82
2023/06/20 04:27:53;;;;;;;14.82;6.70;;;18.80;99.90;;;;;;5002194;28;20049;-82
2023/06/20 04:30:59;;;;;;;10.00;6.53;;;19.20;99.90;;;;;;5009419;28;20052;-82
2023/06/20 04:34:03;;;;;;;8.32;5.82;;;20.20;99.90;;;;;;5012793;28;20392;-82
2023/06/20 04:37:07;;;;;;;10.35;6.57;;;21.40;99.90;;;;;;5024783;28;20044;-82
2023/06/20 04:40:12;;;;;;;8.82;6.22;;;22.50;99.90;;;;;;5013420;28;20077;-82
2023/06/20 04:43:15;;;;;;;15.23;6.38;;;23.10;99.90;;;;;;5012866;28;20048;-82
2023/06/20 04:46:20;;;;;;;15.18;7.18;;;23.60;99.90;;;;;;5012860;28;20057;-83
2023/06/20 04:49:23;;;;;;;10.52;6.70;;;24.20;99.90;;;;;;5012792;28;20431;-83
2023/06/20 04:52:27;;;;;;;11.00;6.30;;;23.40;99.90;;;;;;5012909;28;20045;-82
2023/06/20 04:55:31;;;;;;;10.65;6.40;;;22.90;99.90;;;;;;5001879;28;20477;-82
2023/06/20 04:58:36;;;;;;;12.45;6.72;;;22.50;99.90;;;;;;5001876;28;20049;-82
2023/06/20 05:01:41;;;;;;;8.65;6.63;;;21.60;99.90;;;;;;5012024;28;20032;-82
2023/06/20 05:04:45;;;;;;;11.32;6.88;;;22.00;99.90;;;;;;5013481;28;20045;-81
2023/06/20 05:07:49;;;;;;;9.57;6.50;;;23.50;99.90;;;;;;5014059;28;20404;-82
2023/06/20 05:10:53;;;;;;;8.88;6.53;;;24.90;99.90;;;;;;5012605;28;20049;-80
2023/06/20 05:13:57;;;;;;;9.35;6.35;;;25.50;99.90;;;;;;5012970;28;20045;-82
2023/06/20 05:17:01;;;;;;;11.70;6.75;;;25.70;99.90;;;;;;5013784;28;20045;-82
2023/06/20 05:20:06;;;;;;;8.13;6.07;;;25.80;99.90;;;;;;5013679;28;20073;-82
2023/06/20 05:23:11;;;;;;;10.80;5.93;;;25.80;99.90;;;;;;5023669;28;20044;-82
2023/06/20 05:26:14;;;;;;;13.00;6.88;;;25.60;99.90;;;;;;5024337;28;20048;-82
2023/06/20 05:29:18;;;;;;;9.05;6.25;;;25.30;99.90;;;;;;5013238;28;20053;-82
2023/06/20 05:32:22;;;;;;;11.38;6.63;;;24.90;99.90;;;;;;5012082;28;20049;-82
2023/06/20 05:35:26;;;;;;;7.88;6.53;;;24.90;99.90;;;;;;5013435;28;20040;-82
2023/06/20 05:38:32;;;;;;;8.45;5.50;;;25.10;99.90;;;;;;5011890;28;20486;-82
2023/06/20 05:41:36;;;;;;;13.57;6.88;;;25.80;99.90;;;;;;5012633;28;20048;-82
2023/06/20 05:44:40;;;;;;;7.85;6.07;;;26.20;99.90;;;;;;5000811;28;20057;-81
2023/06/20 05:47:44;;;;;;;12.98;6.78;;;26.00;99.90;;;;;;5013185;28;20068;-81
2023/06/20 05:50:51;;;;;;;7.55;5.72;;;25.40;99.90;;;;;;5012982;28;20045;-81
2023/06/20 05:53:57;;;;;;;9.27;5.90;;;25.10;99.90;;;;;;5012548;28;20495;-81
2023/06/20 05:57:02;;;;;;;7.50;5.70;;;25.50;99.90;;;;;;5013047;28;20045;-82
2023/06/20 06:00:11;;;;;;;9.13;5.95;;;25.50;99.90;;;;;;5011851;28;20398;-81
2023/06/20 06:03:21;;;;;;;8.32;5.60;;;25.50;99.90;;;;;;5011598;28;20049;-82
2023/06/20 06:06:25;;;;;;;7.85;5.72;;;25.70;99.90;;;;;;5011422;28;20057;-82
2023/06/20 06:09:29;;;;;;;8.20;5.60;;;26.20;99.90;;;;;;4992883;28;20643;-82
2023/06/20 06:12:36;;;;;;;9.57;5.57;;;26.20;99.90;;;;;;4993653;28;20081;-82
2023/06/20 06:15:40;;;;;;;10.10;6.10;;;26.30;99.90;;;;;;5013045;28;20507;-81
2023/06/20 06:18:44;;;;;;;11.77;5.32;;;26.50;99.90;;;;;;5012270;28;20121;-81
2023/06/20 06:21:48;;;;;;;8.55;6.00;;;25.60;99.90;;;;;;5010551;28;20504;-82
2023/06/20 06:24:52;;;;;;;9.32;5.50;;;25.60;99.90;;;;;;5012432;28;20049;-82
2023/06/20 06:27:56;;;;;;;8.93;5.47;;;25.70;99.90;;;;;;4999439;28;20041;-82
2023/06/20 06:31:05;;;;;;;8.60;5.32;;;26.40;99.90;;;;;;5012401;28;20546;-82
2023/06/20 06:34:09;;;;;;;8.88;5.35;;;26.60;99.70;;;;;;5012525;28;20503;-81
2023/06/20 06:37:14;;;;;;;6.30;4.53;;;27.20;99.40;;;;;;4994179;28;20041;-83
2023/06/20 06:40:20;;;;;;;8.32;4.80;;;27.80;99.10;;;;;;5013780;28;20064;-82
2023/06/20 06:43:24;;;;;;;10.10;4.53;;;28.10;98.10;;;;;;5011721;28;20053;-83
2023/06/20 06:46:28;;;;;;;6.55;4.80;;;28.40;97.20;;;;;;4998345;28;20049;-82
2023/06/20 06:49:32;;;;;;;6.97;4.53;;;28.60;96.70;;;;;;5011100;28;20507;-82
2023/06/20 06:52:36;;;;;;;6.07;4.78;;;28.90;97.30;;;;;;4999230;28;20037;-82
2023/06/20 06:55:47;;;;;;;8.05;5.15;;;29.40;96.90;;;;;;4992563;28;20045;-82
2023/06/20 06:58:53;;;;;;;6.53;4.82;;;28.40;97.30;;;;;;5001794;28;20029;-82
2023/06/20 07:01:58;;;;;;;6.28;4.80;;;27.80;97.40;;;;;;5007385;28;20417;-81
2023/06/20 07:05:04;;;;;;;6.50;4.47;;;28.00;98.00;;;;;;4996914;28;20060;-82
2023/06/20 07:08:08;;;;;;;10.15;4.75;;;28.40;97.70;;;;;;5011494;28;20645;-82
2023/06/20 07:11:12;;;;;;;6.72;4.78;;;28.80;97.20;;;;;;5010695;28;20044;-82
2023/06/20 07:14:16;;;;;;;5.82;4.75;;;29.80;96.90;;;;;;5010448;28;20057;-82
2023/06/20 07:17:25;;;;;;;7.30;5.22;;;28.20;96.30;;;;;;5003682;28;20050;-83
2023/06/20 07:20:29;;;;;;;10.63;4.40;;;28.60;94.60;;;;;;5006599;28;20033;-82
2023/06/20 07:23:36;;;;;;;7.22;4.47;;;29.50;96.80;;;;;;5009695;28;20478;-83
2023/06/20 07:26:40;;;;;;;5.85;4.45;;;30.60;94.80;;;;;;4992460;28;20049;-82
2023/06/20 07:29:43;;;;;;;5.38;3.83;;;29.30;93.60;;;;;;5011513;28;20428;-83
2023/06/20 07:32:48;;;;;;;5.25;4.00;;;29.80;93.00;;;;;;5007392;28;20507;-82
2023/06/20 07:35:53;;;;;;;5.95;4.20;;;31.00;93.10;;;;;;5005560;28;20031;-81
2023/06/20 07:38:57;;;;;;;5.35;4.28;;;31.00;92.80;;;;;;5009284;28;20515;-81
2023/06/20 07:42:01;;;;;;;8.45;4.13;;;32.10;91.60;;;;;;5001528;28;20389;-82
2023/06/20 07:45:06;;;;;;;5.20;4.30;;;31.90;92.50;;;;;;5007737;28;20041;-82
2023/06/20 07:48:10;;;;;;;5.97;4.28;;;32.70;91.60;;;;;;5009548;28;20530;-82
2023/06/20 07:51:14;;;;;;;7.85;4.20;;;32.60;91.50;;;;;;4991712;28;20041;-82
2023/06/20 07:54:18;;;;;;;7.68;4.47;;;32.30;91.10;;;;;;5009263;28;20048;-84
2023/06/20 07:57:21;;;;;;;7.82;4.75;;;32.40;92.00;;;;;;5007154;28;20392;-81
2023/06/20 08:00:26;;;;;;;8.05;5.00;;;33.40;91.50;;;;;;5009540;28;20052;-83
2023/06/20 08:03:29;;;;;;;7.95;5.13;;;33.90;90.40;;;;;;5002055;28;20045;-82
2023/06/20 08:06:34;;;;;;;9.07;5.07;;;33.00;90.80;;;;;;5009280;28;20045;-84
2023/06/20 08:09:37;;;;;;;11.00;4.90;;;34.30;90.90;;;;;;4992812;28;20041;-81
2023/06/20 08:12:41;;;;;;;7.50;4.35;;;33.80;90.80;;;;;;5010070;28;20044;-82
2023/06/20 08:15:45;;;;;;;5.22;4.65;;;34.30;90.70;;;;;;5000560;28;20044;-81
2023/06/20 08:18:49;;;;;;;6.53;4.93;;;34.50;89.60;;;;;;5009243;28;20045;-80
2023/06/20 08:21:53;;;;;;;8.05;4.88;;;32.30;90.40;;;;;;5006341;28;20061;-81
2023/06/20 08:24:58;;;;;;;9.90;4.75;;;31.80;91.30;;;;;;5009634;28;20049;-81
2023/06/20 08:28:03;;;;;;;8.45;5.03;;;31.00;91.80;;;;;;5007796;28;20044;-81
2023/06/20 08:31:07;;;;;;;7.25;5.03;;;33.50;90.90;;;;;;5009746;28;20044;-81
2023/06/20 08:34:10;;;;;;;6.28;4.35;;;35.40;90.80;;;;;;5009435;28;20168;-83
2023/06/20 08:37:21;;;;;;;6.60;4.45;;;35.10;90.30;;;;;;5005140;28;20049;-83
2023/06/20 08:40:25;;;;;;;;;;;34.50;90.60;;;;;;5007230;28;20515;-82
2023/06/20 08:43:30;;;;;;;9.63;4.47;;;35.70;90.00;;;;;;5005919;28;19920;-81
2023/06/20 08:46:35;;;;;;;6.15;4.25;;;37.30;89.70;;;;;;5004557;28;20519;-78
2023/06/20 08:49:41;;;;;;;5.75;4.30;;;38.40;87.80;;;;;;5007667;28;20048;-79
2023/06/20 08:52:48;;;;;;;5.43;3.60;;;38.30;85.80;;;;;;5007027;28;20045;-81
2023/06/20 08:55:53;;;;;;;7.88;4.60;;;38.00;84.80;;;;;;5015013;28;20041;-81
2023/06/20 08:58:57;;;;;;;6.95;4.57;;;37.50;85.20;;;;;;5008944;28;20041;-80
2023/06/20 09:02:02;;;;;;;6.18;4.50;;;38.00;86.40;;;;;;5012091;28;20044;-81
2023/06/20 09:05:07;;;;;;;9.13;4.65;;;36.80;87.40;;;;;;5009497;28;20048;-81
2023/06/20 09:08:14;;;;;;;7.10;5.78;;;37.90;85.40;;;;;;5008832;28;20057;-80
2023/06/20 09:11:18;;;;;;;7.65;5.25;;;34.90;88.00;;;;;;5008602;28;20045;-81
2023/06/20 09:14:27;;;;;;;7.13;5.38;;;35.50;89.40;;;;;;5012366;28;20044;-81
2023/06/20 09:17:31;;;;;;;7.38;6.30;;;35.60;88.70;;;;;;5012602;28;20045;-80
2023/06/20 09:20:35;;;;;;;9.57;5.57;;;34.70;89.30;;;;;;5010183;28;20045;-77
2023/06/20 09:23:40;;;;;;;9.57;5.43;;;35.10;89.20;;;;;;5000948;28;20064;-78
2023/06/20 09:26:46;;;;;;;8.00;5.50;;;34.80;90.30;;;;;;5008196;28;20396;-81
2023/06/20 09:29:53;;;;;;;13.55;5.63;;;35.30;88.50;;;;;;5006399;28;20041;-83
2023/06/20 09:33:05;;;;;;;5.40;4.60;;;36.60;89.50;;;;;;5011036;28;20049;-82
2023/06/20 09:36:15;;;;;;;6.63;4.60;;;38.40;87.80;;;;;;5007225;28;20045;-83
2023/06/20 09:39:23;;;;;;;;;;;39.90;84.40;;;;;;5011179;28;20037;-84
2023/06/20 09:42:27;;;;;;;14.30;4.20;;;40.20;83.40;;;;;;5010343;28;20284;-80
2023/06/20 09:45:32;;;;;;;8.27;4.35;;;40.50;83.20;;;;;;5003800;28;20053;-83
2023/06/20 09:48:38;;;;;;;6.25;4.25;;;40.50;83.00;;;;;;5003137;28;20045;-80
2023/06/20 09:51:48;;;;;;;10.55;4.32;;;38.80;81.20;;;;;;5012537;28;20048;-83
2023/06/20 09:54:57;;;;;;;5.57;4.28;;;37.10;85.80;;;;;;5008946;28;20068;-82
2023/06/20 09:58:03;;;;;;;5.82;4.40;;;36.90;85.50;;;;;;5011455;28;20037;-83
2023/06/20 10:01:13;;;;;;;5.47;3.90;;;37.10;84.60;;;;;;5020209;28;20056;-82
2023/06/20 10:04:19;;;;;;;5.45;3.47;;;36.00;85.20;;;;;;5009888;28;20041;-82
2023/06/20 10:07:25;;;;;;;16.60;4.07;;;37.00;82.30;;;;;;5012189;28;20049;-79
2023/06/20 10:10:29;;;;;;;11.38;4.65;;;36.50;84.90;;;;;;5010757;28;20053;-79
2023/06/20 10:13:33;;;;;;;8.68;4.03;;;35.60;84.30;;;;;;5006136;28;20041;-84
2023/06/20 10:16:37;;;;;;;5.85;3.53;;;35.30;84.60;;;;;;4992402;28;20045;-82
2023/06/20 10:19:50;;;;;;;4.88;3.72;;;34.80;82.70;;;;;;5002989;28;20044;-80
2023/06/20 10:22:58;;;;;;;4.90;3.50;;;36.40;82.00;;;;;;5003268;28;20052;-83
2023/06/20 10:26:04;;;;;;;8.38;3.63;;;37.60;80.40;;;;;;5009502;28;20049;-80
2023/06/20 10:29:08;;;;;;;6.72;4.18;;;35.40;80.80;;;;;;5008441;28;20037;-80
2023/06/20 10:32:13;;;;;;;5.53;3.40;;;34.50;82.50;;;;;;5013010;28;20427;-81
2023/06/20 10:35:21;;;;;;;5.60;3.90;;;35.60;82.70;;;;;;5009270;28;20044;-81
2023/06/20 10:38:26;;;;;;;3.97;3.20;;;35.60;82.60;;;;;;5006037;28;20040;-83
2023/06/20 10:41:33;;;;;;;5.10;3.70;;;37.00;78.10;;;;;;5009587;28;20041;-83
2023/06/20 10:44:37;;;;;;;5.10;3.83;;;38.80;80.40;;;;;;5008578;28;20045;-82
2023/06/20 10:47:41;;;;;;;5.20;3.42;;;34.50;80.30;;;;;;5009026;28;20085;-82
2023/06/20 10:50:45;;;;;;;5.05;3.00;;;35.70;79.20;;;;;;5010451;28;20053;-84
2023/06/20 10:53:49;;;;;;;4.70;3.40;;;37.20;76.60;;;;;;4995305;28;20485;-81
2023/06/20 10:56:53;;;;;;;5.43;3.38;;;35.30;75.90;;;;;;5006630;28;20385;-82
2023/06/20 10:59:57;;;;;;;7.13;3.97;;;35.50;77.30;;;;;;5007237;28;20053;-83
2023/06/20 11:03:01;;;;;;;8.05;3.88;;;35.20;81.30;;;;;;5008922;28;20041;-85
2023/06/20 11:06:05;;;;;;;4.18;3.22;;;35.70;77.80;;;;;;5008058;28;20045;-82
2023/06/20 11:09:21;;;;;;;6.68;3.40;;;36.70;74.40;;;;;;5011514;28;20504;-84
2023/06/20 11:12:25;;;;;;;9.02;3.50;;;37.50;78.90;;;;;;5008186;28;20045;-81
2023/06/20 11:15:30;;;;;;;5.72;3.45;;;36.00;75.80;;;;;;5006287;28;20049;-79
2023/06/20 11:18:35;;;;;;;5.57;3.75;;;35.50;76.40;;;;;;5006382;28;20045;-82
2023/06/20 11:21:40;;;;;;;5.00;3.50;;;34.70;77.00;;;;;;4994851;28;20041;-79
2023/06/20 11:24:45;;;;;;;5.55;3.60;;;35.60;76.30;;;;;;5013707;28;20052;-83
2023/06/20 11:27:50;;;;;;;6.07;3.78;;;35.60;76.10;;;;;;5004062;28;20044;-81
2023/06/20 11:30:55;;;;;;;10.75;3.67;;;35.50;76.20;;;;;;5011283;28;20072;-78
2023/06/20 11:34:12;;;;;;;3.92;3.17;;;33.90;77.90;;;;;;4995036;28;20048;-83
2023/06/20 11:37:16;;;;;;;5.82;3.47;;;34.80;80.40;;;;;;5011171;28;20369;-78
2023/06/20 11:40:22;;;;;;;6.03;3.50;;;33.60;78.20;;;;;;5015609;28;20040;-81
2023/06/20 11:43:27;;;;;;;4.80;3.80;;;33.70;82.40;;;;;;4999701;28;20048;-80
2023/06/20 11:46:44;;;;;;;5.75;3.50;;;33.60;80.10;;;;;;5010565;28;20049;-82
2023/06/20 11:49:52;;;;;;;5.53;3.45;;;34.60;80.20;;;;;;4998703;28;20799;-80
2023/06/20 11:53:00;;;;;;;6.00;3.53;;;33.50;78.60;;;;;;5016338;28;20061;-84
2023/06/20 11:56:07;;;;;;;4.90;3.95;;;33.70;79.60;;;;;;5009050;28;20045;-80
2023/06/20 11:59:11;;;;;;;6.60;3.50;;;33.00;78.70;;;;;;5000956;28;20058;-78
2023/06/20 12:02:15;;;;;;;5.03;3.80;;;33.60;78.80;;;;;;4991182;28;20053;-81
2023/06/20 12:05:30;;;;;;;5.93;3.47;;;33.90;80.70;;;;;;4991056;28;20049;-79
2023/06/20 12:08:35;;;;;;;6.82;3.88;;;32.90;81.90;;;;;;5018696;28;20056;-83
2023/06/20 12:12:05;;;;;;;7.18;3.58;;;34.10;80.50;;;;;;5010841;28;20542;-82
2023/06/20 12:15:11;;;;;;;6.10;3.80;;;34.40;80.20;;;;;;5004766;28;20041;-82
2023/06/20 12:18:17;;;;;;;7.40;4.10;;;34.80;79.10;;;;;;5008938;28;20041;-82
2023/06/20 12:21:21;;;;;;;6.57;3.80;;;33.60;79.70;;;;;;5007572;28;20049;-83
2023/06/20 12:24:27;;;;;;;5.18;4.00;;;34.40;78.60;;;;;;5014541;28;20048;-83
2023/06/20 12:27:31;;;;;;;4.80;3.95;;;34.70;79.90;;;;;;5007912;28;20049;-81
2023/06/20 12:30:36;;;;;;;6.50;3.42;;;34.40;80.60;;;;;;5010016;28;20503;-84
2023/06/20 12:33:40;;;;;;;4.38;3.08;;;34.50;82.00;;;;;;5006305;28;20526;-83
2023/06/20 12:36:45;;;;;;;6.57;3.67;;;34.70;80.50;;;;;;5000934;28;20388;-83
2023/06/20 12:39:50;;;;;;;5.30;4.15;;;34.70;80.20;;;;;;4999584;28;20511;-82
2023/06/20 12:43:19;;;;;;;5.70;4.03;;;32.60;81.10;;;;;;5015657;28;20048;-81
2023/06/20 12:46:24;;;;;;;6.85;4.28;;;31.80;85.10;;;;;;5011228;28;20060;-83
2023/06/20 12:49:29;;;;;;;7.75;4.18;;;32.40;82.40;;;;;;5015026;28;20040;-80
2023/06/20 12:52:33;;;;;;;6.10;3.63;;;32.70;81.30;;;;;;5010070;28;20041;-82
2023/06/20 12:55:38;;;;;;;7.03;3.80;;;33.30;82.50;;;;;;5019847;28;20041;-81
2023/06/20 12:58:42;;;;;;;10.82;4.75;;;33.20;82.20;;;;;;5005360;28;20041;-82
2023/06/20 13:01:45;;;;;;;6.93;4.32;;;33.60;84.80;;;;;;5004154;28;20076;-82
2023/06/20 13:04:53;;;;;;;7.82;3.92;;;33.50;79.20;;;;;;5010759;28;20060;-79
2023/06/20 13:07:57;;;;;;;7.43;3.78;;;33.30;79.40;;;;;;5013238;28;20393;-78
2023/06/20 13:11:01;;;;;;;9.20;3.95;;;32.60;80.30;;;;;;5007266;28;20041;-83
2023/06/20 13:14:05;;;;;;;9.98;4.10;;;33.50;82.20;;;;;;5001777;28;20412;-84
2023/06/20 13:17:10;;;;;;;11.75;4.40;;;34.50;79.00;;;;;;5015700;28;20096;-82
2023/06/20 13:20:14;;;;;;;4.68;4.20;;;34.70;80.60;;;;;;5019530;28;20101;-82
2023/06/20 13:23:18;;;;;;;6.10;4.43;;;33.60;82.00;;;;;;5000291;28;20483;-81
2023/06/20 13:26:22;;;;;;;5.40;4.53;;;34.10;82.20;;;;;;5022424;28;20113;-83
2023/06/20 13:29:26;;;;;;;8.55;4.25;;;33.80;80.40;;;;;;5014039;28;20033;-82
2023/06/20 13:32:30;;;;;;;7.45;4.05;;;32.10;84.40;;;;;;5013642;28;20049;-81
2023/06/20 13:35:34;;;;;;;9.52;4.20;;;32.70;84.00;;;;;;5014037;28;20053;-83
2023/06/20 13:38:40;;;;;;;8.27;4.00;;;33.40;83.00;;;;;;5013116;28;20042;-82
2023/06/20 13:41:44;;;;;;;7.90;4.22;;;33.90;84.20;;;;;;5010763;28;20049;-82
2023/06/20 13:44:48;;;;;;;5.63;3.92;;;33.60;83.20;;;;;;5030637;28;20048;-81
2023/06/20 13:47:53;;;;;;;7.20;4.32;;;33.60;80.60;;;;;;5015079;28;20052;-81
2023/06/20 13:50:56;;;;;;;6.50;4.20;;;33.50;84.30;;;;;;5020754;28;20064;-83
2023/06/20 13:54:01;;;;;;;8.10;4.10;;;33.10;84.70;;;;;;5012386;28;20040;-80
2023/06/20 13:57:05;;;;;;;6.30;4.10;;;33.00;81.60;;;;;;5017883;28;20389;-81
2023/06/20 14:00:11;;;;;;;7.28;4.28;;;33.30;81.70;;;;;;5012177;28;20400;-82
2023/06/20 14:03:18;;;;;;;7.55;4.20;;;32.90;81.20;;;;;;5018374;28;20049;-84
2023/06/20 14:06:22;;;;;;;10.98;4.13;;;33.30;81.90;;;;;;5010039;28;20048;-83
2023/06/20 14:09:27;;;;;;;7.60;4.13;;;33.30;80.30;;;;;;5025414;28;20049;-80
2023/06/20 14:12:31;;;;;;;5.18;3.70;;;33.60;84.40;;;;;;5006447;28;20037;-81
2023/06/20 14:15:34;;;;;;;5.63;4.25;;;33.10;83.10;;;;;;5018142;28;20041;-84
2023/06/20 14:18:39;;;;;;;8.77;4.38;;;33.10;82.30;;;;;;5011676;28;20036;-82
2023/06/20 14:21:44;;;;;;;7.53;4.40;;;33.30;81.80;;;;;;5010784;28;20053;-85
2023/06/20 14:24:48;;;;;;;8.70;4.60;;;33.30;81.90;;;;;;5012310;28;20389;-88
2023/06/20 14:27:52;;;;;;;6.95;4.30;;;33.50;84.10;;;;;;5012714;28;20053;-85
2023/06/20 14:30:56;;;;;;;8.60;4.20;;;33.30;85.20;;;;;;5021839;28;20052;-82
2023/06/20 14:34:00;;;;;;;11.70;4.80;;;33.10;87.20;;;;;;5026409;28;20503;-83
2023/06/20 14:37:04;;;;;;;5.95;3.88;;;31.80;85.00;;;;;;5009097;28;20037;-82
2023/06/20 14:40:09;;;;;;;8.35;3.97;;;31.30;84.20;;;;;;5013179;28;20048;-82
2023/06/20 14:43:13;;;;;;;7.70;4.25;;;32.10;88.30;;;;;;5004421;28;20049;-82
2023/06/20 14:46:17;;;;;;;8.25;4.65;;;32.50;86.50;;;;;;5019991;28;20057;-82
2023/06/20 14:49:21;;;;;;;6.95;4.18;;;32.40;85.90;;;;;;5032501;28;20048;-82
2023/06/20 14:52:25;;;;;;;11.55;4.47;;;31.90;87.30;;;;;;5015702;28;20403;-79
2023/06/20 14:55:29;;;;;;;8.98;4.35;;;31.30;87.70;;;;;;5017131;28;20052;-77
2023/06/20 14:58:33;;;;;;;7.28;4.32;;;31.20;87.10;;;;;;5013169;28;20077;-80
2023/06/20 15:01:37;;;;;;;6.72;4.57;;;31.20;88.10;;;;;;5010248;28;20053;-79
2023/06/20 15:04:42;;;;;;;6.80;3.80;;;30.90;87.20;;;;;;5020119;28;20044;-78
2023/06/20 15:07:47;;;;;;;8.55;3.83;;;30.80;86.60;;;;;;5011957;28;20048;-81
2023/06/20 15:10:51;;;;;;;8.07;4.18;;;30.90;87.10;;;;;;5010686;28;20056;-80
2023/06/20 15:13:55;;;;;;;7.50;4.47;;;31.10;88.90;;;;;;5012019;28;20044;-80
2023/06/20 15:16:59;;;;;;;8.30;4.15;;;31.10;89.00;;;;;;5009814;28;20061;-80
2023/06/20 15:20:04;;;;;;;7.88;4.20;;;31.00;89.40;;;;;;5010067;28;20045;-79
2023/06/20 15:23:07;;;;;;;7.22;4.38;;;31.20;88.60;;;;;;5011033;28;20057;-78
2023/06/20 15:26:11;;;;;;;11.77;4.85;;;31.30;90.00;;;;;;5015051;28;20065;-81
2023/06/20 15:29:18;;;;;;;7.00;4.32;;;30.80;89.10;;;;;;5020181;28;20041;-80
2023/06/20 15:32:22;;;;;;;5.25;3.72;;;30.50;89.80;;;;;;5011693;28;20045;-80
2023/06/20 15:35:27;;;;;;;8.80;4.25;;;30.80;90.90;;;;;;5012137;28;20053;-79
2023/06/20 15:38:31;;;;;;;8.15;4.50;;;30.50;89.60;;;;;;5008442;28;20045;-79
2023/06/20 15:41:35;;;;;;;8.63;4.15;;;30.40;90.10;;;;;;5018864;28;20179;-81
2023/06/20 15:44:42;;;;;;;10.00;4.85;;;30.20;90.10;;;;;;5018403;28;20053;-79
2023/06/20 15:47:46;;;;;;;6.20;3.78;;;30.00;90.10;;;;;;5018103;28;20487;-78
2023/06/20 15:50:51;;;;;;;6.65;3.72;;;30.10;89.30;;;;;;5008593;28;20495;-79
2023/06/20 15:53:57;;;;;;;6.75;4.30;;;30.30;90.30;;;;;;5024646;28;20048;-79
2023/06/20 15:57:03;;;;;;;6.18;4.00;;;30.50;88.20;;;;;;5017649;28;20053;-79
2023/06/20 16:00:09;;;;;;;11.88;4.80;;;30.70;88.10;;;;;;5025415;28;20049;-80
2023/06/20 16:03:14;;;;;;;5.78;3.50;;;30.60;87.60;;;;;;5009623;28;20068;-80
2023/06/20 16:06:18;;;;;;;9.88;4.20;;;30.80;89.20;;;;;;5015702;28;20052;-78